< < Back
Terminal Aerodrome Forecast


Current Version              Previous Versions:   1  2  3  4  5  6  7  8  9  

Terminal Aerodrome Forecast

745
FTUS42 KJAX 271741
TAFSSI
TAF
KSSI 271741Z 2718/2818 24010G17KT P6SM VCSH FEW022 BKN030 OVC060
      TEMPO 2718/2721 VRB15G25KT 3SM TSRA BKN015CB OVC030
     FM272100 27012G20KT P6SM VCSH SCT025 OVC040
     FM280000 28009KT P6SM SCT050
     FM280400 30011KT P6SM SKC
     FM281500 30011G22KT P6SM SCT250=



Latest METAR

077
SAUS70 KWBC 280000 RRJ
MTRSSI
METAR KSSI 272353Z AUTO 28008G15KT 10SM CLR 16/09 A2979 RMK AO2 SLP089
60024 T01560089 10244 20156 53024


USA.gov is the U.S. government's official web portal to all federal, state and local government web resources and services.